JOK460 ENTC-ENVA
Flight info
| Callsign | JOK460 |
|---|---|
| Flight time | 1h 12m |
| Altitude | 34000 |
| Route | AMIMO DCT NUPGO |
| Aircraft | CRJ9/M-SDFGIRWY/S |
Departure
| Time | 2026-05-04 21:17 |
|---|---|
| Airport | Tromsø Airport (ENTC) |
Arrival
| Time | 2026-05-04 22:29 |
|---|---|
| Airport | Trondheim Airport, Værnes (ENVA) |
| Time | Latitude | Longitude | Altitude | Speed | Heading |
|---|---|---|---|---|---|
| 2026-05-04 21:17 | 69.73150 | 18.96119 | 2065 ft | 176 kts | 21° |
| 2026-05-04 21:17 | 69.74319 | 18.97310 | 2675 ft | 186 kts | 21° |
| 2026-05-04 21:17 | 69.75592 | 18.98635 | 3126 ft | 202 kts | 21° |
| 2026-05-04 21:17 | 69.76946 | 18.99978 | 3781 ft | 209 kts | 20° |
| 2026-05-04 21:18 | 69.78339 | 19.01271 | 4554 ft | 211 kts | 18° |
| 2026-05-04 21:18 | 69.79797 | 19.02003 | 5244 ft | 218 kts | 354° |
| 2026-05-04 21:18 | 69.81186 | 19.00297 | 5961 ft | 223 kts | 319° |
| 2026-05-04 21:18 | 69.82008 | 18.96493 | 6616 ft | 229 kts | 282° |
| 2026-05-04 21:19 | 69.81860 | 18.91980 | 7363 ft | 224 kts | 244° |
| 2026-05-04 21:19 | 69.80950 | 18.88629 | 8332 ft | 207 kts | 216° |
| 2026-05-04 21:19 | 69.79738 | 18.86442 | 8919 ft | 212 kts | 212° |
| 2026-05-04 21:19 | 69.78463 | 18.83883 | 9235 ft | 230 kts | 215° |
| 2026-05-04 21:20 | 69.77197 | 18.80931 | 9630 ft | 240 kts | 230° |
| 2026-05-04 21:20 | 69.76199 | 18.77063 | 10228 ft | 241 kts | 224° |
| 2026-05-04 21:20 | 69.74836 | 18.74274 | 10814 ft | 241 kts | 209° |
| 2026-05-04 21:20 | 69.73359 | 18.71937 | 11387 ft | 243 kts | 205° |
| 2026-05-04 21:21 | 69.71838 | 18.69811 | 11965 ft | 244 kts | 204° |
| 2026-05-04 21:21 | 69.70265 | 18.67713 | 12549 ft | 246 kts | 203° |
| 2026-05-04 21:21 | 69.68730 | 18.65702 | 13124 ft | 248 kts | 203° |
| 2026-05-04 21:21 | 69.67149 | 18.63682 | 13651 ft | 249 kts | 202° |
| 2026-05-04 21:22 | 69.65551 | 18.61701 | 14161 ft | 251 kts | 202° |
| 2026-05-04 21:22 | 69.63968 | 18.59758 | 14651 ft | 252 kts | 202° |
| 2026-05-04 21:22 | 69.62361 | 18.57682 | 15174 ft | 254 kts | 204° |
| 2026-05-04 21:22 | 69.60756 | 18.55529 | 15687 ft | 256 kts | 204° |
| 2026-05-04 21:23 | 69.59138 | 18.53366 | 16182 ft | 257 kts | 204° |
| 2026-05-04 21:23 | 69.57509 | 18.51207 | 16683 ft | 259 kts | 204° |
| 2026-05-04 21:23 | 69.55868 | 18.49036 | 17170 ft | 261 kts | 204° |
| 2026-05-04 21:23 | 69.54216 | 18.46853 | 17650 ft | 262 kts | 204° |
| 2026-05-04 21:24 | 69.52555 | 18.44662 | 18087 ft | 264 kts | 204° |
| 2026-05-04 21:24 | 69.50885 | 18.42465 | 18508 ft | 265 kts | 204° |
| 2026-05-04 21:24 | 69.49208 | 18.40262 | 18923 ft | 266 kts | 204° |
| 2026-05-04 21:24 | 69.47523 | 18.38052 | 19321 ft | 267 kts | 203° |
| 2026-05-04 21:25 | 69.45830 | 18.35835 | 19715 ft | 268 kts | 203° |
| 2026-05-04 21:25 | 69.44131 | 18.33615 | 20108 ft | 270 kts | 203° |
| 2026-05-04 21:25 | 69.42423 | 18.31385 | 20495 ft | 271 kts | 203° |
| 2026-05-04 21:25 | 69.40703 | 18.29149 | 20873 ft | 272 kts | 203° |
| 2026-05-04 21:26 | 69.38976 | 18.26904 | 21252 ft | 274 kts | 203° |
| 2026-05-04 21:26 | 69.37241 | 18.24649 | 21611 ft | 275 kts | 203° |
| 2026-05-04 21:26 | 69.35495 | 18.22391 | 21975 ft | 277 kts | 203° |
| 2026-05-04 21:26 | 69.33742 | 18.20122 | 22336 ft | 278 kts | 202° |
| 2026-05-04 21:27 | 69.31977 | 18.17844 | 22681 ft | 279 kts | 203° |
| 2026-05-04 21:27 | 69.30201 | 18.15555 | 23022 ft | 281 kts | 203° |
| 2026-05-04 21:27 | 69.28417 | 18.13262 | 23318 ft | 282 kts | 202° |
| 2026-05-04 21:27 | 69.26622 | 18.10957 | 23583 ft | 284 kts | 203° |
| 2026-05-04 21:28 | 69.24813 | 18.08640 | 23847 ft | 287 kts | 203° |
| 2026-05-04 21:28 | 69.22993 | 18.06310 | 24111 ft | 288 kts | 203° |
| 2026-05-04 21:28 | 69.21162 | 18.03968 | 24376 ft | 290 kts | 203° |
| 2026-05-04 21:28 | 69.19319 | 18.01620 | 24637 ft | 292 kts | 203° |
| 2026-05-04 21:29 | 69.17464 | 17.99262 | 24887 ft | 294 kts | 203° |
| 2026-05-04 21:29 | 69.15598 | 17.96892 | 25153 ft | 295 kts | 203° |
| 2026-05-04 21:29 | 69.13720 | 17.94510 | 25408 ft | 297 kts | 203° |
| 2026-05-04 21:29 | 69.11834 | 17.92123 | 25666 ft | 299 kts | 203° |
| 2026-05-04 21:30 | 69.09934 | 17.89729 | 25919 ft | 300 kts | 203° |
| 2026-05-04 21:30 | 69.08026 | 17.87321 | 26178 ft | 302 kts | 203° |
| 2026-05-04 21:30 | 69.06105 | 17.84903 | 26442 ft | 304 kts | 203° |
| 2026-05-04 21:30 | 69.04172 | 17.82480 | 26698 ft | 305 kts | 203° |
| 2026-05-04 21:31 | 69.00277 | 17.77602 | 27212 ft | 309 kts | 204° |
| 2026-05-04 21:31 | 68.98312 | 17.75151 | 27487 ft | 310 kts | 204° |
| 2026-05-04 21:31 | 68.96338 | 17.72694 | 27750 ft | 312 kts | 204° |
| 2026-05-04 21:32 | 68.94356 | 17.70228 | 27998 ft | 313 kts | 204° |
| 2026-05-04 21:32 | 68.92361 | 17.67757 | 28262 ft | 315 kts | 204° |
| 2026-05-04 21:32 | 68.90353 | 17.65270 | 28500 ft | 317 kts | 204° |
| 2026-05-04 21:32 | 68.88335 | 17.62775 | 28750 ft | 318 kts | 204° |
| 2026-05-04 21:33 | 68.86306 | 17.60276 | 29004 ft | 320 kts | 204° |
| 2026-05-04 21:33 | 68.84270 | 17.57765 | 29247 ft | 321 kts | 204° |
| 2026-05-04 21:33 | 68.82220 | 17.55250 | 29483 ft | 323 kts | 204° |
| 2026-05-04 21:33 | 68.80156 | 17.52715 | 29636 ft | 327 kts | 204° |
| 2026-05-04 21:34 | 68.78053 | 17.50146 | 29690 ft | 333 kts | 204° |
| 2026-05-04 21:34 | 68.73717 | 17.44860 | 29747 ft | 349 kts | 204° |
| 2026-05-04 21:35 | 68.69176 | 17.39353 | 29756 ft | 365 kts | 204° |
| 2026-05-04 21:35 | 68.64419 | 17.33610 | 29756 ft | 381 kts | 203° |
| 2026-05-04 21:36 | 68.59426 | 17.27642 | 29756 ft | 397 kts | 204° |
| 2026-05-04 21:36 | 68.54272 | 17.21480 | 29751 ft | 411 kts | 203° |
| 2026-05-04 21:37 | 68.48940 | 17.15128 | 29744 ft | 425 kts | 203° |
| 2026-05-04 21:37 | 68.43437 | 17.08614 | 29742 ft | 437 kts | 204° |
| 2026-05-04 21:38 | 68.37821 | 17.01991 | 29738 ft | 448 kts | 203° |
| 2026-05-04 21:38 | 68.31990 | 16.95168 | 29737 ft | 459 kts | 203° |
| 2026-05-04 21:38 | 68.29058 | 16.91750 | 29972 ft | 456 kts | 203° |
| 2026-05-04 21:39 | 68.26146 | 16.88357 | 30363 ft | 452 kts | 204° |
| 2026-05-04 21:39 | 68.23313 | 16.85060 | 30504 ft | 453 kts | 203° |
| 2026-05-04 21:39 | 68.20294 | 16.81571 | 30665 ft | 454 kts | 203° |
| 2026-05-04 21:39 | 68.17383 | 16.78215 | 30797 ft | 456 kts | 203° |
| 2026-05-04 21:40 | 68.15436 | 16.75968 | 30914 ft | 457 kts | 204° |
| 2026-05-04 21:40 | 68.12493 | 16.72589 | 31033 ft | 458 kts | 203° |
| 2026-05-04 21:40 | 68.09574 | 16.69244 | 31181 ft | 459 kts | 203° |
| 2026-05-04 21:41 | 68.03601 | 16.62429 | 31370 ft | 463 kts | 203° |
| 2026-05-04 21:41 | 68.00629 | 16.59060 | 31539 ft | 463 kts | 203° |
| 2026-05-04 21:41 | 67.97662 | 16.55697 | 31694 ft | 464 kts | 203° |
| 2026-05-04 21:41 | 67.94684 | 16.52336 | 31866 ft | 464 kts | 203° |
| 2026-05-04 21:42 | 67.91675 | 16.48945 | 32044 ft | 464 kts | 203° |
| 2026-05-04 21:42 | 67.88702 | 16.45614 | 32229 ft | 464 kts | 204° |
| 2026-05-04 21:42 | 67.85784 | 16.41959 | 32399 ft | 464 kts | 208° |
| 2026-05-04 21:42 | 67.83010 | 16.37761 | 32580 ft | 463 kts | 212° |
| 2026-05-04 21:43 | 67.80246 | 16.33334 | 32757 ft | 463 kts | 212° |
| 2026-05-04 21:43 | 67.77473 | 16.29003 | 32936 ft | 464 kts | 210° |
| 2026-05-04 21:43 | 67.74659 | 16.24820 | 33129 ft | 464 kts | 210° |
| 2026-05-04 21:43 | 67.71846 | 16.20652 | 33282 ft | 464 kts | 210° |
| 2026-05-04 21:44 | 67.68991 | 16.16416 | 33388 ft | 466 kts | 210° |
| 2026-05-04 21:44 | 67.63340 | 16.08094 | 33401 ft | 473 kts | 210° |
| 2026-05-04 21:45 | 67.57523 | 15.99579 | 33440 ft | 477 kts | 210° |
| 2026-05-04 21:45 | 67.51698 | 15.91103 | 33514 ft | 481 kts | 210° |
| 2026-05-04 21:46 | 67.45788 | 15.82540 | 33513 ft | 485 kts | 210° |
| 2026-05-04 21:46 | 67.39829 | 15.73967 | 33509 ft | 488 kts | 210° |
| 2026-05-04 21:47 | 67.33923 | 15.65518 | 33511 ft | 490 kts | 210° |
| 2026-05-04 21:47 | 67.27906 | 15.56954 | 33471 ft | 493 kts | 210° |
| 2026-05-04 21:48 | 67.21797 | 15.48308 | 33493 ft | 489 kts | 210° |
| 2026-05-04 21:48 | 67.15899 | 15.40009 | 33260 ft | 486 kts | 210° |
| 2026-05-04 21:48 | 67.12950 | 15.35879 | 33445 ft | 479 kts | 209° |
| 2026-05-04 21:49 | 67.10037 | 15.31808 | 33521 ft | 475 kts | 209° |
| 2026-05-04 21:49 | 67.04267 | 15.23780 | 33573 ft | 470 kts | 209° |
| 2026-05-04 21:50 | 66.98539 | 15.15852 | 33582 ft | 466 kts | 209° |
| 2026-05-04 21:50 | 66.92951 | 15.08165 | 33591 ft | 464 kts | 209° |
| 2026-05-04 21:51 | 66.87138 | 15.00205 | 33591 ft | 462 kts | 209° |
| 2026-05-04 21:51 | 66.81481 | 14.92504 | 33600 ft | 460 kts | 209° |
| 2026-05-04 21:52 | 66.75836 | 14.84859 | 33595 ft | 459 kts | 209° |
| 2026-05-04 21:52 | 66.70178 | 14.77250 | 33601 ft | 458 kts | 209° |
| 2026-05-04 21:53 | 66.64562 | 14.69713 | 33605 ft | 456 kts | 209° |
| 2026-05-04 21:53 | 66.58959 | 14.62240 | 33604 ft | 456 kts | 209° |
| 2026-05-04 21:54 | 66.53358 | 14.54810 | 33601 ft | 455 kts | 209° |
| 2026-05-04 21:54 | 66.47774 | 14.47444 | 33609 ft | 454 kts | 209° |
| 2026-05-04 21:55 | 66.42191 | 14.40112 | 33613 ft | 453 kts | 209° |
| 2026-05-04 21:55 | 66.36625 | 14.32841 | 33604 ft | 452 kts | 209° |
| 2026-05-04 21:56 | 66.31000 | 14.25530 | 33608 ft | 451 kts | 209° |
| 2026-05-04 21:56 | 66.25467 | 14.18372 | 33605 ft | 451 kts | 209° |
| 2026-05-04 21:57 | 66.19901 | 14.11214 | 33607 ft | 450 kts | 209° |
| 2026-05-04 21:57 | 66.14338 | 14.04087 | 33625 ft | 450 kts | 209° |
| 2026-05-04 21:58 | 66.08742 | 13.96957 | 33620 ft | 449 kts | 209° |
| 2026-05-04 21:58 | 66.03186 | 13.89917 | 33625 ft | 449 kts | 209° |
| 2026-05-04 21:59 | 65.97668 | 13.82956 | 33633 ft | 449 kts | 209° |
| 2026-05-04 21:59 | 65.92073 | 13.75931 | 33631 ft | 448 kts | 209° |
| 2026-05-04 22:00 | 65.86477 | 13.69204 | 33624 ft | 449 kts | 206° |
| 2026-05-04 22:00 | 65.80699 | 13.63388 | 33625 ft | 449 kts | 204° |
| 2026-05-04 22:00 | 65.77793 | 13.60585 | 33322 ft | 448 kts | 204° |
| 2026-05-04 22:01 | 65.74862 | 13.57791 | 33661 ft | 447 kts | 204° |
| 2026-05-04 22:01 | 65.69114 | 13.52028 | 33638 ft | 447 kts | 205° |
| 2026-05-04 22:02 | 65.63361 | 13.46337 | 33642 ft | 447 kts | 205° |
| 2026-05-04 22:02 | 65.57609 | 13.40668 | 33658 ft | 447 kts | 205° |
| 2026-05-04 22:03 | 65.51843 | 13.35009 | 33639 ft | 447 kts | 205° |
| 2026-05-04 22:03 | 65.46088 | 13.29386 | 33643 ft | 446 kts | 205° |
| 2026-05-04 22:04 | 65.41231 | 13.24662 | 33655 ft | 446 kts | 205° |
| 2026-05-04 22:04 | 65.35400 | 13.19017 | 33654 ft | 446 kts | 205° |
| 2026-05-04 22:05 | 65.29651 | 13.13476 | 33648 ft | 445 kts | 205° |
| 2026-05-04 22:05 | 65.23903 | 13.07962 | 33648 ft | 445 kts | 205° |
| 2026-05-04 22:06 | 65.18155 | 13.02477 | 33652 ft | 445 kts | 205° |
| 2026-05-04 22:06 | 65.12413 | 12.97015 | 33657 ft | 445 kts | 205° |
| 2026-05-04 22:07 | 65.06668 | 12.91572 | 33668 ft | 444 kts | 205° |
| 2026-05-04 22:07 | 65.00834 | 12.86091 | 33453 ft | 450 kts | 205° |
| 2026-05-04 22:07 | 64.97896 | 12.83327 | 32899 ft | 459 kts | 205° |
| 2026-05-04 22:08 | 64.94910 | 12.80533 | 32245 ft | 464 kts | 205° |
| 2026-05-04 22:08 | 64.91901 | 12.77728 | 31611 ft | 467 kts | 205° |
| 2026-05-04 22:08 | 64.88867 | 12.74907 | 30984 ft | 469 kts | 205° |
| 2026-05-04 22:08 | 64.85788 | 12.72050 | 30367 ft | 470 kts | 205° |
| 2026-05-04 22:09 | 64.82740 | 12.69227 | 29771 ft | 470 kts | 205° |
| 2026-05-04 22:09 | 64.79709 | 12.66429 | 29039 ft | 460 kts | 205° |
| 2026-05-04 22:09 | 64.76778 | 12.63723 | 28303 ft | 452 kts | 205° |
| 2026-05-04 22:09 | 64.73829 | 12.61006 | 27547 ft | 446 kts | 205° |
| 2026-05-04 22:10 | 64.70927 | 12.58343 | 26874 ft | 439 kts | 205° |
| 2026-05-04 22:10 | 64.68099 | 12.55746 | 26254 ft | 433 kts | 205° |
| 2026-05-04 22:10 | 64.65310 | 12.53195 | 25666 ft | 428 kts | 204° |
| 2026-05-04 22:10 | 64.62548 | 12.50679 | 25060 ft | 424 kts | 204° |
| 2026-05-04 22:11 | 64.59780 | 12.48163 | 24468 ft | 420 kts | 204° |
| 2026-05-04 22:11 | 64.57100 | 12.45729 | 23933 ft | 417 kts | 204° |
| 2026-05-04 22:11 | 64.54373 | 12.43249 | 23370 ft | 414 kts | 204° |
| 2026-05-04 22:11 | 64.51699 | 12.40830 | 22712 ft | 411 kts | 204° |
| 2026-05-04 22:12 | 64.49006 | 12.38405 | 22043 ft | 408 kts | 204° |
| 2026-05-04 22:12 | 64.46370 | 12.36029 | 21404 ft | 406 kts | 204° |
| 2026-05-04 22:12 | 64.43740 | 12.33660 | 20783 ft | 404 kts | 204° |
| 2026-05-04 22:12 | 64.41122 | 12.31314 | 20150 ft | 403 kts | 204° |
| 2026-05-04 22:13 | 64.38510 | 12.28984 | 19531 ft | 401 kts | 204° |
| 2026-05-04 22:13 | 64.35907 | 12.26664 | 18935 ft | 400 kts | 204° |
| 2026-05-04 22:13 | 64.33313 | 12.24347 | 18350 ft | 399 kts | 204° |
| 2026-05-04 22:13 | 64.30727 | 12.22044 | 17732 ft | 398 kts | 204° |
| 2026-05-04 22:14 | 64.28145 | 12.19756 | 17075 ft | 397 kts | 204° |
| 2026-05-04 22:14 | 64.25568 | 12.17475 | 16456 ft | 397 kts | 204° |
| 2026-05-04 22:14 | 64.22992 | 12.15190 | 15824 ft | 396 kts | 204° |
| 2026-05-04 22:14 | 64.20392 | 12.12893 | 15224 ft | 395 kts | 204° |
| 2026-05-04 22:15 | 64.17797 | 12.10611 | 14670 ft | 393 kts | 204° |
| 2026-05-04 22:15 | 64.15258 | 12.08386 | 14207 ft | 389 kts | 204° |
| 2026-05-04 22:15 | 64.12745 | 12.06180 | 13761 ft | 385 kts | 204° |
| 2026-05-04 22:15 | 64.10250 | 12.03994 | 13268 ft | 382 kts | 204° |
| 2026-05-04 22:16 | 64.07778 | 12.01834 | 12775 ft | 379 kts | 204° |
| 2026-05-04 22:16 | 64.05325 | 11.99696 | 12282 ft | 376 kts | 204° |
| 2026-05-04 22:16 | 64.02890 | 11.97574 | 11781 ft | 373 kts | 204° |
| 2026-05-04 22:16 | 64.00477 | 11.95475 | 11274 ft | 370 kts | 203° |
| 2026-05-04 22:17 | 63.98081 | 11.93398 | 10778 ft | 367 kts | 203° |
| 2026-05-04 22:17 | 63.95702 | 11.91342 | 10302 ft | 364 kts | 203° |
| 2026-05-04 22:17 | 63.93351 | 11.89305 | 9912 ft | 359 kts | 203° |
| 2026-05-04 22:17 | 63.91031 | 11.87305 | 9504 ft | 355 kts | 203° |
| 2026-05-04 22:18 | 63.88739 | 11.85337 | 9099 ft | 350 kts | 203° |
| 2026-05-04 22:18 | 63.86481 | 11.83388 | 8710 ft | 345 kts | 203° |
| 2026-05-04 22:18 | 63.84249 | 11.81472 | 8324 ft | 341 kts | 203° |
| 2026-05-04 22:18 | 63.82045 | 11.79580 | 7934 ft | 337 kts | 203° |
| 2026-05-04 22:19 | 63.79867 | 11.77727 | 7581 ft | 333 kts | 203° |
| 2026-05-04 22:19 | 63.77718 | 11.75884 | 7263 ft | 327 kts | 203° |
| 2026-05-04 22:19 | 63.75608 | 11.74087 | 6997 ft | 321 kts | 203° |
| 2026-05-04 22:19 | 63.73526 | 11.72310 | 6724 ft | 317 kts | 203° |
| 2026-05-04 22:20 | 63.71480 | 11.70578 | 6456 ft | 312 kts | 203° |
| 2026-05-04 22:20 | 63.69480 | 11.68871 | 6204 ft | 308 kts | 203° |
| 2026-05-04 22:20 | 63.67469 | 11.67174 | 5929 ft | 304 kts | 203° |
| 2026-05-04 22:20 | 63.65499 | 11.65503 | 5654 ft | 301 kts | 203° |
| 2026-05-04 22:21 | 63.63551 | 11.63865 | 5395 ft | 297 kts | 203° |
| 2026-05-04 22:21 | 63.61630 | 11.62240 | 5131 ft | 294 kts | 203° |
| 2026-05-04 22:21 | 63.59704 | 11.60619 | 4901 ft | 305 kts | 203° |
| 2026-05-04 22:21 | 63.57649 | 11.58886 | 4798 ft | 314 kts | 203° |
| 2026-05-04 22:22 | 63.55682 | 11.57247 | 4741 ft | 290 kts | 203° |
| 2026-05-04 22:22 | 63.53894 | 11.55743 | 4702 ft | 270 kts | 203° |
| 2026-05-04 22:22 | 63.52162 | 11.54289 | 4687 ft | 252 kts | 204° |
| 2026-05-04 22:22 | 63.50578 | 11.52929 | 4669 ft | 236 kts | 204° |
| 2026-05-04 22:23 | 63.49093 | 11.51645 | 4655 ft | 222 kts | 204° |
| 2026-05-04 22:23 | 63.47694 | 11.50456 | 4619 ft | 208 kts | 204° |
| 2026-05-04 22:23 | 63.46416 | 11.49091 | 4684 ft | 204 kts | 223° |
| 2026-05-04 22:23 | 63.45744 | 11.46392 | 4722 ft | 203 kts | 257° |
| 2026-05-04 22:24 | 63.45571 | 11.44334 | 4793 ft | 200 kts | 265° |
| 2026-05-04 22:24 | 63.45504 | 11.41376 | 4816 ft | 186 kts | 271° |
| 2026-05-04 22:24 | 63.45554 | 11.38516 | 4775 ft | 183 kts | 275° |
| 2026-05-04 22:24 | 63.45644 | 11.35626 | 4501 ft | 192 kts | 275° |
| 2026-05-04 22:25 | 63.45698 | 11.32544 | 4058 ft | 203 kts | 272° |
| 2026-05-04 22:25 | 63.45709 | 11.29359 | 3736 ft | 206 kts | 271° |
| 2026-05-04 22:25 | 63.45708 | 11.26137 | 3400 ft | 208 kts | 271° |
| 2026-05-04 22:25 | 63.45702 | 11.22923 | 3090 ft | 203 kts | 271° |
| 2026-05-04 22:26 | 63.45703 | 11.19829 | 2804 ft | 196 kts | 271° |
| 2026-05-04 22:26 | 63.45710 | 11.16766 | 2454 ft | 193 kts | 270° |
| 2026-05-04 22:26 | 63.45718 | 11.13852 | 2170 ft | 187 kts | 270° |
| 2026-05-04 22:26 | 63.45721 | 11.11165 | 1869 ft | 158 kts | 270° |
| 2026-05-04 22:27 | 63.45723 | 11.08894 | 1586 ft | 142 kts | 270° |
| 2026-05-04 22:27 | 63.45725 | 11.06590 | 1411 ft | 156 kts | 270° |
| 2026-05-04 22:27 | 63.45729 | 11.04033 | 1132 ft | 169 kts | 271° |
| 2026-05-04 22:27 | 63.45735 | 11.01494 | 825 ft | 159 kts | 271° |
| 2026-05-04 22:28 | 63.45748 | 10.99097 | 581 ft | 150 kts | 271° |
| 2026-05-04 22:28 | 63.45752 | 10.96839 | 383 ft | 141 kts | 271° |
| 2026-05-04 22:28 | 63.45755 | 10.94709 | 183 ft | 135 kts | 272° |
| 2026-05-04 22:28 | 63.45752 | 10.92816 | 45 ft | 119 kts | 273° |
| 2026-05-04 22:29 | 63.45767 | 10.91343 | 34 ft | 58 kts | 270° |
| 2026-05-04 22:29 | 63.45751 | 10.90718 | 32 ft | 23 kts | 258° |
| 2026-05-04 22:29 | 63.45699 | 10.90449 | 31 ft | 20 kts | 230° |
| 2026-05-04 22:29 | 63.45603 | 10.90420 | 31 ft | 5 kts | 131° |
| 2026-05-04 22:30 | 63.45596 | 10.90530 | 32 ft | 13 kts | 91° |
| 2026-05-04 22:30 | 63.45594 | 10.90716 | 33 ft | 11 kts | 91° |
| 2026-05-04 22:30 | 63.45595 | 10.90926 | 33 ft | 16 kts | 89° |
| 2026-05-04 22:30 | 63.45596 | 10.91224 | 34 ft | 22 kts | 90° |
| 2026-05-04 22:31 | 63.45591 | 10.91558 | 37 ft | 13 kts | 99° |
| 2026-05-04 22:31 | 63.45561 | 10.91652 | 37 ft | 3 kts | 160° |
| 2026-05-04 22:31 | 63.45551 | 10.91658 | 37 ft | 3 kts | 169° |
| 2026-05-04 22:31 | 63.45531 | 10.91662 | 37 ft | 3 kts | 177° |
| 2026-05-04 22:32 | 63.45515 | 10.91663 | 37 ft | 1 kts | 179° |
| 2026-05-04 22:32 | 63.45510 | 10.91663 | 37 ft | 0 kts | 179° |